createdAt,value
2023-05-24T00:00:01.554Z,2.70
2023-05-24T00:02:28.714Z,2.50
2023-05-24T00:04:55.970Z,2.60
2023-05-24T00:07:23.018Z,3.10
2023-05-24T00:09:49.969Z,2.90
2023-05-24T00:12:17.134Z,2.70
2023-05-24T00:14:44.094Z,2.50
2023-05-24T00:17:11.065Z,2.70
2023-05-24T00:19:38.608Z,2.50
2023-05-24T00:22:05.977Z,1.70
2023-05-24T00:24:33.062Z,1.90
2023-05-24T00:27:00.131Z,2.50
2023-05-24T00:29:27.140Z,3.00
2023-05-24T00:31:54.202Z,3.10
2023-05-24T00:34:22.440Z,3.20
2023-05-24T00:36:49.671Z,2.80
2023-05-24T00:39:16.730Z,3.00
2023-05-24T00:41:43.885Z,3.10
2023-05-24T00:44:11.423Z,3.20
2023-05-24T00:46:38.978Z,3.10
2023-05-24T00:49:06.566Z,3.00
2023-05-24T00:51:35.195Z,3.20
2023-05-24T00:54:02.918Z,2.80
2023-05-24T00:56:30.486Z,2.80
2023-05-24T00:58:57.607Z,2.70
2023-05-24T01:01:31.490Z,3.20
2023-05-24T01:03:59.885Z,3.10
2023-05-24T01:06:29.146Z,3.00
2023-05-24T01:09:02.162Z,2.90
2023-05-24T01:11:54.184Z,3.00
2023-05-24T01:14:53.316Z,3.30
2023-05-24T01:17:27.522Z,3.20
2023-05-24T01:20:02.457Z,2.70
2023-05-24T01:22:54.434Z,3.50
2023-05-24T01:25:37.427Z,2.80
2023-05-24T01:28:08.368Z,3.00
2023-05-24T01:30:36.619Z,2.80
2023-05-24T01:33:04.285Z,2.80
2023-05-24T01:35:34.642Z,2.90
2023-05-24T01:38:01.717Z,2.60
2023-05-24T01:40:28.785Z,3.20
2023-05-24T01:43:17.286Z,2.90
2023-05-24T01:46:08.683Z,2.20
2023-05-24T01:48:49.539Z,2.80
2023-05-24T01:51:19.696Z,2.70
2023-05-24T01:53:49.339Z,2.70
2023-05-24T01:56:17.656Z,2.70
2023-05-24T01:58:46.936Z,2.90
2023-05-24T02:01:14.665Z,2.80
2023-05-24T02:03:41.925Z,2.90
2023-05-24T02:06:09.009Z,3.20
2023-05-24T02:08:36.530Z,3.10
2023-05-24T02:11:03.581Z,2.90
2023-05-24T02:13:30.618Z,2.50
2023-05-24T02:15:57.753Z,2.90
2023-05-24T02:18:25.989Z,2.80
2023-05-24T02:20:53.548Z,2.80
2023-05-24T02:23:20.917Z,3.00
2023-05-24T02:25:47.942Z,2.90
2023-05-24T02:28:14.970Z,2.70
2023-05-24T02:30:44.904Z,2.90
2023-05-24T02:33:12.650Z,2.70
2023-05-24T02:35:41.644Z,2.70
2023-05-24T02:38:10.125Z,2.60
2023-05-24T02:40:37.325Z,2.80
2023-05-24T02:43:04.456Z,2.70
2023-05-24T02:45:31.584Z,2.70
2023-05-24T02:47:58.785Z,2.50
2023-05-24T02:50:26.120Z,2.80
2023-05-24T02:52:53.775Z,2.80
2023-05-24T02:55:20.927Z,3.00
2023-05-24T02:57:48.270Z,2.90
2023-05-24T03:00:16.292Z,2.40
2023-05-24T03:02:43.851Z,3.00
2023-05-24T03:05:11.000Z,2.50
2023-05-24T03:07:38.131Z,2.80
2023-05-24T03:10:06.858Z,2.40
2023-05-24T03:12:34.304Z,2.70
2023-05-24T03:15:01.312Z,2.90
2023-05-24T03:17:30.439Z,2.50
2023-05-24T03:19:57.556Z,2.90
2023-05-24T03:22:24.684Z,2.80
2023-05-24T03:24:51.705Z,1.90
2023-05-24T03:27:18.899Z,2.20
2023-05-24T03:29:45.857Z,2.40
2023-05-24T03:32:13.339Z,2.40
2023-05-24T03:34:40.494Z,2.50
2023-05-24T03:37:08.496Z,2.60
2023-05-24T03:39:35.995Z,2.60
2023-05-24T03:42:22.447Z,2.80
2023-05-24T03:44:52.388Z,2.40
2023-05-24T03:47:19.486Z,2.50
2023-05-24T03:49:48.076Z,2.40
2023-05-24T03:52:15.148Z,2.60
2023-05-24T03:54:43.429Z,2.80
2023-05-24T03:57:11.649Z,2.70
2023-05-24T03:59:40.481Z,2.60
2023-05-24T04:02:08.726Z,2.60
2023-05-24T04:04:37.211Z,2.50
2023-05-24T04:07:04.434Z,2.60
2023-05-24T04:09:31.598Z,3.00
2023-05-24T04:11:58.675Z,2.50
2023-05-24T04:14:26.022Z,2.50
2023-05-24T04:16:54.263Z,2.70
2023-05-24T04:19:21.386Z,3.00
2023-05-24T04:21:49.839Z,2.60
2023-05-24T04:24:17.053Z,2.70
2023-05-24T04:26:46.280Z,2.70
2023-05-24T04:29:13.697Z,2.60
2023-05-24T04:31:45.193Z,2.40
2023-05-24T04:34:14.412Z,2.40
2023-05-24T04:36:41.809Z,2.50
2023-05-24T04:39:09.328Z,2.50
2023-05-24T04:41:36.308Z,2.70
2023-05-24T04:44:03.949Z,2.10
2023-05-24T04:46:31.612Z,2.20
2023-05-24T04:48:58.743Z,1.90
2023-05-24T04:51:26.320Z,2.40
2023-05-24T04:53:53.510Z,2.10
2023-05-24T04:56:20.851Z,2.30
2023-05-24T04:58:48.380Z,2.80
2023-05-24T05:01:15.552Z,2.50
2023-05-24T05:03:43.414Z,2.30
2023-05-24T05:06:10.737Z,2.40
2023-05-24T05:08:37.876Z,2.40
2023-05-24T05:11:04.890Z,2.70
2023-05-24T05:13:31.918Z,2.60
2023-05-24T05:15:59.303Z,2.40
2023-05-24T05:18:26.305Z,2.40
2023-05-24T05:20:53.321Z,2.00
2023-05-24T05:23:21.565Z,1.90
2023-05-24T05:25:48.683Z,2.30
2023-05-24T05:28:15.881Z,2.40
2023-05-24T05:30:43.094Z,2.30
2023-05-24T05:33:10.691Z,2.20
2023-05-24T05:35:37.826Z,2.50
2023-05-24T05:38:04.826Z,2.20
2023-05-24T05:40:32.344Z,2.20
2023-05-24T05:43:00.665Z,2.30
2023-05-24T05:45:28.330Z,2.70
2023-05-24T05:47:55.459Z,2.90
2023-05-24T05:50:25.697Z,2.80
2023-05-24T05:52:54.051Z,2.30
2023-05-24T05:55:21.936Z,2.70
2023-05-24T05:57:48.979Z,2.40
2023-05-24T06:00:16.615Z,1.80
2023-05-24T06:02:43.908Z,2.10
2023-05-24T06:05:12.247Z,2.30
2023-05-24T06:07:40.700Z,2.40
2023-05-24T06:10:08.517Z,2.50
2023-05-24T06:12:35.996Z,2.40
2023-05-24T06:15:03.053Z,2.50
2023-05-24T06:17:30.494Z,2.30
2023-05-24T06:19:57.834Z,2.90
2023-05-24T06:22:26.243Z,2.80
2023-05-24T06:24:53.412Z,2.80
2023-05-24T06:27:20.721Z,3.10
2023-05-24T06:29:48.086Z,3.10
2023-05-24T06:32:15.203Z,2.90
2023-05-24T06:34:43.472Z,2.70
2023-05-24T06:37:10.673Z,3.00
2023-05-24T06:39:38.145Z,3.00
2023-05-24T06:42:05.579Z,3.10
2023-05-24T06:44:36.969Z,3.50
2023-05-24T06:47:06.344Z,2.70
2023-05-24T06:49:33.899Z,2.50
2023-05-24T06:52:05.191Z,2.40
2023-05-24T06:54:35.764Z,2.60
2023-05-24T06:57:04.158Z,3.00
2023-05-24T06:59:31.802Z,2.90
2023-05-24T07:02:03.763Z,2.90
2023-05-24T07:04:32.582Z,2.90
2023-05-24T07:06:59.812Z,2.90
2023-05-24T07:09:26.977Z,2.90
2023-05-24T07:11:54.389Z,3.00
2023-05-24T07:14:23.317Z,3.30
2023-05-24T07:16:50.505Z,3.40
2023-05-24T07:19:17.685Z,3.40
2023-05-24T07:21:44.829Z,4.00
2023-05-24T07:26:39.759Z,3.50
2023-05-24T07:29:06.894Z,3.20
2023-05-24T07:31:34.990Z,3.30
2023-05-24T07:34:03.087Z,3.40
2023-05-24T07:36:34.689Z,3.50
2023-05-24T07:39:04.301Z,3.90
2023-05-24T07:41:31.600Z,4.20
2023-05-24T07:43:59.031Z,3.10
2023-05-24T07:46:26.489Z,3.20
2023-05-24T07:48:53.712Z,3.60
2023-05-24T07:51:21.804Z,3.50
2023-05-24T07:53:48.794Z,4.40
2023-05-24T07:56:16.578Z,4.70
2023-05-24T07:58:46.996Z,4.10
2023-05-24T08:01:14.936Z,4.20
2023-05-24T08:03:48.688Z,3.90
2023-05-24T08:06:16.847Z,4.20
2023-05-24T08:08:44.110Z,4.10
2023-05-24T08:11:11.464Z,4.80
2023-05-24T08:13:38.706Z,4.60
2023-05-24T08:16:05.890Z,4.90
2023-05-24T08:18:33.572Z,4.60
2023-05-24T08:21:01.086Z,4.20
2023-05-24T08:23:30.219Z,4.70
2023-05-24T08:25:58.452Z,5.30
2023-05-24T08:28:26.224Z,5.10
2023-05-24T08:30:53.204Z,4.60
2023-05-24T08:33:20.208Z,4.10
2023-05-24T08:35:47.551Z,3.60
2023-05-24T08:38:14.596Z,4.10
2023-05-24T08:40:41.736Z,4.60
2023-05-24T08:43:12.307Z,5.10
2023-05-24T08:45:40.114Z,5.40
2023-05-24T08:48:07.587Z,4.60
2023-05-24T08:50:35.627Z,4.80
2023-05-24T08:53:03.181Z,7.10
2023-05-24T08:55:33.291Z,5.10
2023-05-24T08:58:01.122Z,5.60
2023-05-24T09:00:28.217Z,5.20
2023-05-24T09:02:57.755Z,5.30
2023-05-24T09:05:26.625Z,5.50
2023-05-24T09:07:56.518Z,4.90
2023-05-24T09:10:25.701Z,5.40
2023-05-24T09:12:57.839Z,4.80
2023-05-24T09:15:25.214Z,5.70
2023-05-24T09:17:52.385Z,5.40
2023-05-24T09:20:20.908Z,5.60
2023-05-24T09:22:53.279Z,5.10
2023-05-24T09:25:21.632Z,5.30
2023-05-24T09:27:53.318Z,5.80
2023-05-24T09:30:21.946Z,5.50
2023-05-24T09:32:59.711Z,5.50
2023-05-24T09:35:29.961Z,5.40
2023-05-24T09:38:00.749Z,5.00
2023-05-24T09:40:28.623Z,4.10
2023-05-24T09:43:10.081Z,4.70
2023-05-24T09:46:03.854Z,5.00
2023-05-24T09:48:32.352Z,5.10
2023-05-24T09:51:19.460Z,5.50
2023-05-24T09:53:48.535Z,5.90
2023-05-24T09:56:15.967Z,5.40
2023-05-24T09:58:43.040Z,5.30
2023-05-24T10:01:11.402Z,5.50
2023-05-24T10:03:38.783Z,5.50
2023-05-24T10:06:10.070Z,5.30
2023-05-24T10:08:37.170Z,5.20
2023-05-24T10:11:05.332Z,5.50
2023-05-24T10:13:36.694Z,5.80
2023-05-24T10:16:04.859Z,6.20
2023-05-24T10:18:32.140Z,5.80
2023-05-24T10:21:01.023Z,6.20
2023-05-24T10:23:31.617Z,6.10
2023-05-24T10:26:10.100Z,5.20
2023-05-24T10:28:55.392Z,3.80
2023-05-24T10:31:31.724Z,4.50
2023-05-24T10:34:07.968Z,5.50
2023-05-24T10:36:37.524Z,5.50
2023-05-24T10:39:05.404Z,5.20
2023-05-24T10:41:40.525Z,6.20
2023-05-24T11:04:02.126Z,5.50
2023-05-24T11:08:08.744Z,4.10
2023-05-24T11:13:30.643Z,4.70
2023-05-24T11:15:55.783Z,5.10
2023-05-24T11:21:52.940Z,5.60
2023-05-24T11:24:45.548Z,5.60
2023-05-24T11:27:26.946Z,6.00
2023-05-24T11:30:10.663Z,5.80
2023-05-24T11:33:02.096Z,6.20
2023-05-24T11:35:53.925Z,5.80
2023-05-24T11:38:46.419Z,5.60
2023-05-24T11:41:32.583Z,5.70
2023-05-24T11:44:23.071Z,5.50
2023-05-24T11:47:17.965Z,5.30
2023-05-24T11:49:56.425Z,5.90
2023-05-24T12:00:40.518Z,4.80
2023-05-24T12:03:56.564Z,5.20
2023-05-24T12:07:24.005Z,5.60
2023-05-24T12:10:58.261Z,6.10
2023-05-24T12:14:27.975Z,6.20
2023-05-24T12:18:02.812Z,5.30
2023-05-24T12:22:00.033Z,5.80
2023-05-24T12:25:25.620Z,6.30
2023-05-24T12:28:45.275Z,5.70
2023-05-24T12:31:19.848Z,5.30
2023-05-24T12:46:47.180Z,5.60
2023-05-24T13:09:17.530Z,5.40
2023-05-24T13:17:07.108Z,5.00
2023-05-24T13:23:41.168Z,5.60
2023-05-24T13:30:39.094Z,5.50
2023-05-24T13:36:24.409Z,5.50
2023-05-24T13:39:02.325Z,6.00
2023-05-24T13:41:41.288Z,5.70
2023-05-24T13:44:09.419Z,5.60
2023-05-24T13:46:40.322Z,5.50
2023-05-24T13:49:10.435Z,5.10
2023-05-24T13:51:43.625Z,4.80
2023-05-24T13:54:19.336Z,4.70
2023-05-24T13:56:49.951Z,4.90
2023-05-24T13:59:26.299Z,5.00
2023-05-24T14:02:03.529Z,5.10
2023-05-24T14:04:35.994Z,5.20
2023-05-24T14:07:06.201Z,5.50
2023-05-24T14:09:33.968Z,4.90
2023-05-24T14:12:04.113Z,5.20
2023-05-24T14:17:01.772Z,4.90
2023-05-24T14:19:30.214Z,5.30
2023-05-24T14:21:57.527Z,5.00
2023-05-24T14:24:26.133Z,5.50
2023-05-24T14:26:53.660Z,5.40
2023-05-24T14:29:20.755Z,5.40
2023-05-24T14:31:48.260Z,6.30
2023-05-24T14:34:15.545Z,5.30
2023-05-24T14:36:43.223Z,4.40
2023-05-24T14:39:10.687Z,5.00
2023-05-24T14:41:38.416Z,5.40
2023-05-24T14:44:06.403Z,5.20
2023-05-24T14:46:34.388Z,5.20
2023-05-24T14:49:03.021Z,5.00
2023-05-24T14:51:30.192Z,5.50
2023-05-24T14:53:57.934Z,4.80
2023-05-24T14:56:25.100Z,5.20
2023-05-24T14:58:53.254Z,5.10
2023-05-24T15:01:21.170Z,4.80
2023-05-24T15:03:48.657Z,5.30
2023-05-24T15:06:15.965Z,5.30
2023-05-24T15:08:43.424Z,5.90
2023-05-24T15:11:11.703Z,5.30
2023-05-24T15:13:38.723Z,5.60
2023-05-24T15:16:06.202Z,4.90
2023-05-24T15:18:33.378Z,5.10
2023-05-24T15:21:00.634Z,5.10
2023-05-24T15:23:27.977Z,4.60
2023-05-24T15:25:55.430Z,4.80
2023-05-24T15:28:24.788Z,5.20
2023-05-24T15:30:53.672Z,4.90
2023-05-24T15:33:21.039Z,5.60
2023-05-24T15:35:48.336Z,4.70
2023-05-24T15:38:19.191Z,4.90
2023-05-24T15:40:47.314Z,5.30
2023-05-24T15:43:16.142Z,5.70
2023-05-24T15:45:44.627Z,5.40
2023-05-24T15:48:13.176Z,5.30
2023-05-24T15:53:12.100Z,5.20
2023-05-24T15:55:39.252Z,5.30
2023-05-24T15:58:06.625Z,4.40
2023-05-24T16:00:33.876Z,3.90
2023-05-24T16:03:01.025Z,4.80
2023-05-24T16:05:28.669Z,5.00
2023-05-24T16:07:56.938Z,5.40
2023-05-24T16:10:24.704Z,5.80
2023-05-24T16:12:54.183Z,5.80
2023-05-24T16:15:21.907Z,6.10
2023-05-24T16:17:49.239Z,5.70
2023-05-24T16:20:16.708Z,5.90
2023-05-24T16:22:51.213Z,6.20
2023-05-24T16:25:20.036Z,6.40
2023-05-24T16:27:47.310Z,6.10
2023-05-24T16:30:14.552Z,6.00
2023-05-24T16:32:41.853Z,6.20
2023-05-24T16:35:09.984Z,6.60
2023-05-24T16:37:37.430Z,4.70
2023-05-24T16:40:05.726Z,4.40
2023-05-24T16:42:33.279Z,4.70
2023-05-24T16:45:00.533Z,4.70
2023-05-24T16:47:29.786Z,5.40
2023-05-24T16:49:57.300Z,5.30
2023-05-24T16:52:27.386Z,5.20
2023-05-24T16:54:55.489Z,5.80
2023-05-24T16:57:23.053Z,5.50
2023-05-24T16:59:50.961Z,5.80
2023-05-24T17:02:18.182Z,5.70
2023-05-24T17:04:46.753Z,5.60
2023-05-24T17:07:14.323Z,5.50
2023-05-24T17:09:41.480Z,5.40
2023-05-24T17:12:08.828Z,4.80
2023-05-24T17:14:36.092Z,4.10
2023-05-24T17:17:07.078Z,4.30
2023-05-24T17:19:35.290Z,5.10
2023-05-24T17:22:02.916Z,5.20
2023-05-24T17:24:30.108Z,5.30
2023-05-24T17:26:58.087Z,5.50
2023-05-24T17:29:27.006Z,5.30
2023-05-24T17:31:54.598Z,5.30
2023-05-24T17:34:22.625Z,5.50
2023-05-24T17:36:49.820Z,5.30
2023-05-24T17:39:17.974Z,5.80
2023-05-24T17:41:45.615Z,4.90
2023-05-24T17:44:13.435Z,4.40
2023-05-24T17:46:41.774Z,4.70
2023-05-24T17:49:12.104Z,5.10
2023-05-24T17:51:39.343Z,5.40
2023-05-24T17:54:09.546Z,5.50
2023-05-24T17:56:53.354Z,5.00
2023-05-24T17:59:28.051Z,6.20
2023-05-24T18:01:59.487Z,5.30
2023-05-24T18:04:29.142Z,5.30
2023-05-24T18:07:01.363Z,5.10
2023-05-24T18:09:35.105Z,4.80
2023-05-24T18:12:16.130Z,4.70
2023-05-24T18:14:44.744Z,5.40
2023-05-24T18:17:13.053Z,4.90
2023-05-24T18:19:40.348Z,5.30
2023-05-24T18:22:07.803Z,5.30
2023-05-24T18:24:35.973Z,5.40
2023-05-24T18:27:03.644Z,5.80
2023-05-24T18:29:31.615Z,5.40
2023-05-24T18:32:02.137Z,5.50
2023-05-24T18:34:30.287Z,4.90
2023-05-24T18:36:58.087Z,4.90
2023-05-24T18:39:25.365Z,5.30
2023-05-24T18:41:52.599Z,5.20
2023-05-24T18:44:20.453Z,4.90
2023-05-24T18:46:48.440Z,5.10
2023-05-24T18:49:18.433Z,5.10
2023-05-24T18:51:46.066Z,5.10
2023-05-24T18:54:14.320Z,4.70
2023-05-24T18:56:42.227Z,4.90
2023-05-24T18:59:11.626Z,5.10
2023-05-24T19:01:40.788Z,5.10
2023-05-24T19:04:08.232Z,5.40
2023-05-24T19:06:45.065Z,5.40
2023-05-24T19:09:13.077Z,5.70
2023-05-24T19:11:41.801Z,5.60
2023-05-24T19:14:10.884Z,5.40
2023-05-24T19:16:38.903Z,4.20
2023-05-24T19:19:07.129Z,4.20
2023-05-24T19:21:35.491Z,4.60
2023-05-24T19:24:02.862Z,4.80
2023-05-24T19:26:30.007Z,5.20
2023-05-24T19:28:58.172Z,5.00
2023-05-24T19:31:25.991Z,5.00
2023-05-24T19:34:00.509Z,4.80
2023-05-24T19:36:31.036Z,5.00
2023-05-24T19:38:58.537Z,5.20
2023-05-24T19:41:26.954Z,3.90
2023-05-24T19:43:56.421Z,3.50
2023-05-24T19:46:24.563Z,4.50
2023-05-24T19:48:51.693Z,4.90
2023-05-24T19:51:19.023Z,4.70
2023-05-24T19:53:47.100Z,5.10
2023-05-24T19:56:14.456Z,4.70
2023-05-24T19:58:41.644Z,5.30
2023-05-24T20:01:09.032Z,5.20
2023-05-24T20:03:36.431Z,5.50
2023-05-24T20:06:04.084Z,5.50
2023-05-24T20:08:31.565Z,3.90
2023-05-24T20:10:59.958Z,4.60
2023-05-24T20:13:31.739Z,4.40
2023-05-24T20:16:12.053Z,4.90
2023-05-24T20:18:45.560Z,5.00
2023-05-24T20:21:20.408Z,4.90
2023-05-24T20:23:58.423Z,5.00
2023-05-24T20:26:32.452Z,5.00
2023-05-24T20:29:01.380Z,5.20
2023-05-24T20:31:28.699Z,5.10
2023-05-24T20:33:57.966Z,4.50
2023-05-24T20:36:25.845Z,3.80
2023-05-24T20:38:53.909Z,4.30
2023-05-24T20:41:21.887Z,4.50
2023-05-24T20:43:54.837Z,4.80
2023-05-24T20:46:24.160Z,5.10
2023-05-24T20:48:51.911Z,5.30
2023-05-24T20:51:19.631Z,4.60
2023-05-24T20:53:47.069Z,5.10
2023-05-24T20:56:15.131Z,5.10
2023-05-24T20:58:42.266Z,4.30
2023-05-24T21:01:09.559Z,4.10
2023-05-24T21:03:37.424Z,4.00
2023-05-24T21:06:05.121Z,4.70
2023-05-24T21:08:32.921Z,4.60
2023-05-24T21:11:00.291Z,4.80
2023-05-24T21:13:28.920Z,4.90
2023-05-24T21:15:56.440Z,4.80
2023-05-24T21:18:23.467Z,4.50
2023-05-24T21:20:51.076Z,4.80
2023-05-24T21:23:20.035Z,4.00
2023-05-24T21:25:48.315Z,3.90
2023-05-24T21:28:16.945Z,4.50
2023-05-24T21:30:44.551Z,4.80
2023-05-24T21:33:11.892Z,4.70
2023-05-24T21:35:39.285Z,4.60
2023-05-24T21:38:06.822Z,4.50
2023-05-24T21:40:34.256Z,4.70
2023-05-24T21:43:01.454Z,5.00
2023-05-24T21:45:28.638Z,4.90
2023-05-24T21:47:55.781Z,3.90
2023-05-24T21:50:22.986Z,3.60
2023-05-24T21:52:50.016Z,4.20
2023-05-24T21:55:17.326Z,4.20
2023-05-24T21:57:44.488Z,4.80
2023-05-24T22:00:12.354Z,4.70
2023-05-24T22:02:39.562Z,4.30
2023-05-24T22:05:07.500Z,4.50
2023-05-24T22:07:34.584Z,5.20
2023-05-24T22:10:01.863Z,4.90
2023-05-24T22:12:28.906Z,4.40
2023-05-24T22:14:56.017Z,4.40
2023-05-24T22:17:23.286Z,4.20
2023-05-24T22:19:50.417Z,4.30
2023-05-24T22:22:19.907Z,4.80
2023-05-24T22:24:47.512Z,4.80
2023-05-24T22:27:17.134Z,4.90
2023-05-24T22:29:44.723Z,4.60
2023-05-24T22:32:12.087Z,4.70
2023-05-24T22:34:39.489Z,4.70
2023-05-24T22:37:07.119Z,4.40
2023-05-24T22:39:34.152Z,4.50
2023-05-24T22:42:01.877Z,3.90
2023-05-24T22:44:28.942Z,4.20
2023-05-24T22:46:56.684Z,5.00
2023-05-24T22:49:25.068Z,4.50
2023-05-24T22:51:53.928Z,4.70
2023-05-24T22:54:21.121Z,4.70
2023-05-24T22:56:48.416Z,4.50
2023-05-24T22:59:15.564Z,4.60
2023-05-24T23:01:44.918Z,4.70
2023-05-24T23:04:21.066Z,4.30
2023-05-24T23:06:53.454Z,3.80
2023-05-24T23:09:29.490Z,4.20
2023-05-24T23:11:58.801Z,4.40
2023-05-24T23:14:26.022Z,4.80
2023-05-24T23:16:53.130Z,4.40
2023-05-24T23:19:20.282Z,5.00
2023-05-24T23:21:47.853Z,5.20
2023-05-24T23:24:16.112Z,4.90
2023-05-24T23:26:43.895Z,3.90
2023-05-24T23:29:11.510Z,3.60
2023-05-24T23:31:38.739Z,4.20
2023-05-24T23:34:05.985Z,4.40
2023-05-24T23:36:34.111Z,4.80
2023-05-24T23:39:01.307Z,4.90
2023-05-24T23:41:28.439Z,4.50
2023-05-24T23:43:55.556Z,5.10
2023-05-24T23:46:22.645Z,5.00
2023-05-24T23:48:49.894Z,4.90
2023-05-24T23:51:17.261Z,5.10
2023-05-24T23:53:44.499Z,4.10
2023-05-24T23:56:12.058Z,3.90
2023-05-24T23:58:39.011Z,4.70
